Terminal Aerodrome Forecast
Issued by NWS Albany, NY

Home | Current Version | Previous Version | Text Only | Print | Product List | Glossary On
Versions: 1 2 3 4 5 6 7 8 9 10 11 12 13 14 15 16
000
FTUS41 KALY 031143
TAFALB
TAF
KALB 031143Z 0312/0412 00000KT 6SM BR MIFG FEW250
     FM031300 34005KT P6SM SCT080 BKN250
     FM032000 36006KT P6SM VCSH BKN070
     FM040300 02008KT P6SM FEW080 BKN200
     FM041100 03005KT P6SM SCT025 BKN040=

USA.gov is the U.S. government's official web portal to all federal, state and local government web resources and services.